Temp: 12.6°C   Baro: 1022.3mb
  Wind: 0.9mph   Dir: NE (54°)
  Rain: 0.0mm (0.0mm/hr)
  Solar: 0W/m2  Hum: 82%

Historic data

Bath Spa Weather Station Historical Data
Daily Summary for September 24, 2019 Units:  Both    English   Metric
Daily Weekly Monthly Yearly Custom
  High: Low: Average:
Temperature: 59 °F /  15 °C 49.5 °F /  9.7 °C 52.4 °F /  11.3 °C
Dew Point: 54 °F /  12.2 °C 46.8 °F /  8.2 °C 49.6 °F /  9.8 °C
Humidity: 96% 74.9% 91%
Wind Speed: 8.5mph /  13.7km/h - 1.5mph /  2.4km/h
Wind Gust: 18mph /  29km/h - -
Wind- - SW
Pressure: 29.84 in /  1010.4 hPa 29.61 in /  1002.6 hPa -
Precipitation: 0.00 in /  0 mm    
Historical Graphs
 
 
Tabular Data for September 24, 2019
Time Temperature Dew Point Pressure Wind Wind Speed Wind Gust Humidity Rainfall Rate (Hourly) solar
00:04 52 °F /  11.1 °C 50.5 °F /  10.3 °C 29.70in /  1005.6hPa ESE 0.3mph /  0.5km/h 2mph /  3.2km/h 95% 0.01in /  0.25mm 0 W/m2
00:09 52 °F /  11.1 °C 50.5 °F /  10.3 °C 29.70in /  1005.6hPa Calm   2mph /  3.2km/h 95% 0.00in /  0mm 0 W/m2
00:14 52 °F /  11.1 °C 50.5 °F /  10.3 °C 29.70in /  1005.6hPa Calm     95% 0.00in /  0mm 0 W/m2
00:19 52 °F /  11.1 °C 50.5 °F /  10.3 °C 29.70in /  1005.6hPa Calm     95% 0.00in /  0mm 0 W/m2
00:24 52 °F /  11.1 °C 50.5 °F /  10.3 °C 29.69in /  1005.3hPa Calm     95% 0.00in /  0mm 0 W/m2
00:29 52 °F /  11.1 °C 50.5 °F /  10.3 °C 29.69in /  1005.3hPa Calm   1mph /  1.6km/h 95% 0.00in /  0mm 0 W/m2
00:34 52 °F /  11.1 °C 50.5 °F /  10.3 °C 29.69in /  1005.3hPa Calm     95% 0.00in /  0mm 0 W/m2
00:39 51.7 °F /  10.9 °C 50.3 °F /  10.2 °C 29.69in /  1005.3hPa Calm     95% 0.00in /  0mm 0 W/m2
00:44 51.5 °F /  10.8 °C 50.1 °F /  10.1 °C 29.69in /  1005.3hPa Calm     95% 0.00in /  0mm 0 W/m2
00:49 51.4 °F /  10.8 °C 50 °F /  10 °C 29.69in /  1005.3hPa Calm   1mph /  1.6km/h 95% 0.00in /  0mm 0 W/m2
00:54 51.4 °F /  10.8 °C 50 °F /  10 °C 29.69in /  1005.3hPa Calm     95% 0.00in /  0mm 0 W/m2
00:59 51.4 °F /  10.8 °C 50 °F /  10 °C 29.69in /  1005.3hPa Calm     95% 0.00in /  0mm 0 W/m2
01:04 51.4 °F /  10.8 °C 50 °F /  10 °C 29.69in /  1005.3hPa Calm     95% 0.00in /  0mm 0 W/m2
01:09 51.4 °F /  10.8 °C 50 °F /  10 °C 29.69in /  1005.3hPa ESE 0.2mph /  0.3km/h 1mph /  1.6km/h 95% 0.00in /  0mm 0 W/m2
01:14 51.3 °F /  10.7 °C 49.8 °F /  9.9 °C 29.69in /  1005.3hPa ESE 0.3mph /  0.5km/h 2mph /  3.2km/h 95% 0.00in /  0mm 0 W/m2
01:19 51.3 °F /  10.7 °C 49.8 °F /  9.9 °C 29.69in /  1005.3hPa Calm   1mph /  1.6km/h 95% 0.00in /  0mm 0 W/m2
01:24 51.3 °F /  10.7 °C 49.8 °F /  9.9 °C 29.69in /  1005.3hPa Calm   1mph /  1.6km/h 95% 0.00in /  0mm 0 W/m2
01:29 51.3 °F /  10.7 °C 49.8 °F /  9.9 °C 29.69in /  1005.3hPa Calm     95% 0.00in /  0mm 0 W/m2
01:34 51.3 °F /  10.7 °C 49.8 °F /  9.9 °C 29.69in /  1005.3hPa Calm     95% 0.00in /  0mm 0 W/m2
01:39 51.3 °F /  10.7 °C 49.8 °F /  9.9 °C 29.69in /  1005.3hPa ESE 0.3mph /  0.5km/h 2mph /  3.2km/h 95% 0.00in /  0mm 0 W/m2
01:44 51.3 °F /  10.7 °C 49.9 °F /  9.9 °C 29.69in /  1005.3hPa ESE 0.2mph /  0.3km/h 1mph /  1.6km/h 95% 0.00in /  0mm 0 W/m2
01:49 51.4 °F /  10.8 °C 50 °F /  10 °C 29.69in /  1005.3hPa Calm     95% 0.00in /  0mm 0 W/m2
01:54 51.4 °F /  10.8 °C 50 °F /  10 °C 29.68in /  1005hPa Calm     95% 0.00in /  0mm 0 W/m2
01:59 51.4 °F /  10.8 °C 50 °F /  10 °C 29.68in /  1005hPa Calm     95% 0.00in /  0mm 0 W/m2
02:04 51.4 °F /  10.8 °C 50 °F /  10 °C 29.68in /  1005hPa Calm     95% 0.00in /  0mm 0 W/m2
02:09 51.3 °F /  10.7 °C 49.9 °F /  9.9 °C 29.68in /  1005hPa Calm     95% 0.00in /  0mm 0 W/m2
02:14 51.3 °F /  10.7 °C 49.8 °F /  9.9 °C 29.68in /  1005hPa Calm     95% 0.00in /  0mm 0 W/m2
02:19 51.3 °F /  10.7 °C 49.8 °F /  9.9 °C 29.68in /  1005hPa Calm     95% 0.00in /  0mm 0 W/m2
02:24 51.3 °F /  10.7 °C 49.8 °F /  9.9 °C 29.68in /  1005hPa Calm     95% 0.00in /  0mm 0 W/m2
02:29 51.3 °F /  10.7 °C 49.8 °F /  9.9 °C 29.68in /  1005hPa Calm     95% 0.00in /  0mm 0 W/m2
02:34 51.3 °F /  10.7 °C 49.8 °F /  9.9 °C 29.68in /  1005hPa Calm     95% 0.00in /  0mm 0 W/m2
02:39 51.3 °F /  10.7 °C 49.8 °F /  9.9 °C 29.68in /  1005hPa Calm     95% 0.00in /  0mm 0 W/m2
02:44 51.3 °F /  10.7 °C 49.8 °F /  9.9 °C 29.68in /  1005hPa Calm     95% 0.00in /  0mm 0 W/m2
02:49 51.3 °F /  10.7 °C 49.8 °F /  9.9 °C 29.68in /  1005hPa Calm     95% 0.00in /  0mm 0 W/m2
02:54 51.3 °F /  10.7 °C 49.8 °F /  9.9 °C 29.68in /  1005hPa Calm     95% 0.00in /  0mm 0 W/m2
02:59 51.3 °F /  10.7 °C 49.8 °F /  9.9 °C 29.68in /  1005hPa Calm     95% 0.00in /  0mm 0 W/m2
03:04 51.3 °F /  10.7 °C 49.8 °F /  9.9 °C 29.68in /  1005hPa Calm     95% 0.00in /  0mm 0 W/m2
03:09 51.3 °F /  10.7 °C 49.8 °F /  9.9 °C 29.68in /  1005hPa Calm     95% 0.00in /  0mm 0 W/m2
03:14 51.2 °F /  10.7 °C 49.7 °F /  9.8 °C 29.67in /  1004.6hPa ESE 0.2mph /  0.3km/h 1mph /  1.6km/h 95% 0.00in /  0mm 0 W/m2
03:19 51.1 °F /  10.6 °C 49.6 °F /  9.8 °C 29.67in /  1004.6hPa Calm     95% 0.00in /  0mm 0 W/m2
03:24 51.1 °F /  10.6 °C 49.6 °F /  9.8 °C 29.67in /  1004.6hPa Calm     95% 0.00in /  0mm 0 W/m2
03:29 51.1 °F /  10.6 °C 49.6 °F /  9.8 °C 29.67in /  1004.6hPa Calm     95% 0.00in /  0mm 0 W/m2
03:34 51.1 °F /  10.6 °C 49.6 °F /  9.8 °C 29.67in /  1004.6hPa Calm     95% 0.00in /  0mm 0 W/m2
03:39 51.1 °F /  10.6 °C 49.6 °F /  9.8 °C 29.66in /  1004.3hPa Calm     95% 0.00in /  0mm 0 W/m2
03:44 51.1 °F /  10.6 °C 49.6 °F /  9.8 °C 29.66in /  1004.3hPa Calm     95% 0.00in /  0mm 0 W/m2
03:49 51.1 °F /  10.6 °C 49.6 °F /  9.8 °C 29.65in /  1003.9hPa Calm     95% 0.00in /  0mm 0 W/m2
03:54 51.1 °F /  10.6 °C 49.6 °F /  9.8 °C 29.66in /  1004.3hPa Calm     95% 0.00in /  0mm 0 W/m2
03:59 51.1 °F /  10.6 °C 49.6 °F /  9.8 °C 29.66in /  1004.3hPa Calm     95% 0.00in /  0mm 0 W/m2
04:04 51 °F /  10.6 °C 49.6 °F /  9.8 °C 29.65in /  1003.9hPa Calm     95% 0.00in /  0mm 0 W/m2
04:09 50.9 °F /  10.5 °C 49.5 °F /  9.7 °C 29.65in /  1003.9hPa Calm     95% 0.00in /  0mm 0 W/m2
04:14 50.7 °F /  10.4 °C 49.3 °F /  9.6 °C 29.66in /  1004.3hPa Calm     95% 0.00in /  0mm 0 W/m2
04:19 50.7 °F /  10.4 °C 49.3 °F /  9.6 °C 29.66in /  1004.3hPa Calm     95.1% 0.00in /  0mm 0 W/m2
04:24 50.7 °F /  10.4 °C 49.4 °F /  9.7 °C 29.66in /  1004.3hPa Calm     95.4% 0.00in /  0mm 0 W/m2
04:29 50.7 °F /  10.4 °C 49.5 °F /  9.7 °C 29.65in /  1003.9hPa Calm     95.7% 0.00in /  0mm 0 W/m2
04:34 50.7 °F /  10.4 °C 49.6 °F /  9.8 °C 29.65in /  1003.9hPa Calm     96% 0.00in /  0mm 0 W/m2
04:39 50.7 °F /  10.4 °C 49.6 °F /  9.8 °C 29.65in /  1003.9hPa Calm     96% 0.00in /  0mm 0 W/m2
04:44 50.7 °F /  10.4 °C 49.6 °F /  9.8 °C 29.65in /  1003.9hPa Calm     96% 0.00in /  0mm 0 W/m2
04:49 50.7 °F /  10.4 °C 49.6 °F /  9.8 °C 29.64in /  1003.6hPa Calm     96% 0.00in /  0mm 0 W/m2
04:54 50.7 °F /  10.4 °C 49.6 °F /  9.8 °C 29.64in /  1003.6hPa Calm     96% 0.00in /  0mm 0 W/m2
04:59 50.7 °F /  10.4 °C 49.6 °F /  9.8 °C 29.64in /  1003.6hPa Calm     96% 0.00in /  0mm 0 W/m2
05:04 50.7 °F /  10.4 °C 49.6 °F /  9.8 °C 29.64in /  1003.6hPa Calm     96% 0.00in /  0mm 0 W/m2
05:09 50.6 °F /  10.3 °C 49.5 °F /  9.7 °C 29.64in /  1003.6hPa Calm     96% 0.00in /  0mm 0 W/m2
05:14 50.5 °F /  10.3 °C 49.2 °F /  9.6 °C 29.64in /  1003.6hPa Calm     95.1% 0.00in /  0mm 0 W/m2
05:19 50.4 °F /  10.2 °C 48.9 °F /  9.4 °C 29.64in /  1003.6hPa Calm     95% 0.00in /  0mm 0 W/m2
05:24 50.4 °F /  10.2 °C 49.1 °F /  9.5 °C 29.64in /  1003.6hPa Calm   1mph /  1.6km/h 95.4% 0.00in /  0mm 0 W/m2
05:29 50.3 °F /  10.2 °C 49 °F /  9.4 °C 29.63in /  1003.3hPa Calm   1mph /  1.6km/h 95.6% 0.00in /  0mm 0 W/m2
05:34 50.2 °F /  10.1 °C 49 °F /  9.4 °C 29.63in /  1003.3hPa Calm   1mph /  1.6km/h 95.8% 0.00in /  0mm 0 W/m2
05:39 50.2 °F /  10.1 °C 49.1 °F /  9.5 °C 29.63in /  1003.3hPa Calm     96% 0.00in /  0mm 0 W/m2
05:44 50.2 °F /  10.1 °C 49.1 °F /  9.5 °C 29.63in /  1003.3hPa Calm     96% 0.00in /  0mm 0 W/m2
05:49 50.1 °F /  10.1 °C 49 °F /  9.4 °C 29.64in /  1003.6hPa ESE 1.4mph /  2.3km/h 3mph /  4.8km/h 96% 0.00in /  0mm 0 W/m2
05:54 49.8 °F /  9.9 °C 48.6 °F /  9.2 °C 29.63in /  1003.3hPa ESE 1.1mph /  1.8km/h 4mph /  6.4km/h 95.5% 0.00in /  0mm 0 W/m2
05:59 49.8 °F /  9.9 °C 48.7 °F /  9.3 °C 29.63in /  1003.3hPa ESE 0.7mph /  1.1km/h 2mph /  3.2km/h 96% 0.00in /  0mm 0 W/m2
06:04 49.8 °F /  9.9 °C 48.7 °F /  9.3 °C 29.63in /  1003.3hPa Calm   2mph /  3.2km/h 96% 0.00in /  0mm 0 W/m2
06:09 49.6 °F /  9.8 °C 48.6 °F /  9.2 °C 29.63in /  1003.3hPa Calm   1mph /  1.6km/h 96% 0.00in /  0mm 0 W/m2
06:14 49.6 °F /  9.8 °C 48.6 °F /  9.2 °C 29.63in /  1003.3hPa Calm     96% 0.00in /  0mm 0 W/m2
06:19 49.6 °F /  9.8 °C 48.6 °F /  9.2 °C 29.63in /  1003.3hPa Calm     96% 0.00in /  0mm 0 W/m2
06:24 49.6 °F /  9.8 °C 48.6 °F /  9.2 °C 29.63in /  1003.3hPa Calm   1mph /  1.6km/h 96% 0.00in /  0mm 0 W/m2
06:29 49.5 °F /  9.7 °C 48.4 °F /  9.1 °C 29.63in /  1003.3hPa Calm   1mph /  1.6km/h 96% 0.00in /  0mm 0 W/m2
06:34 49.5 °F /  9.7 °C 48.4 °F /  9.1 °C 29.63in /  1003.3hPa Calm     96% 0.00in /  0mm 0 W/m2
06:39 49.5 °F /  9.7 °C 48.4 °F /  9.1 °C 29.63in /  1003.3hPa Calm     96% 0.00in /  0mm 0 W/m2
06:44 49.9 °F /  9.9 °C 48.8 °F /  9.3 °C 29.64in /  1003.6hPa Calm     96% 0.00in /  0mm 0 W/m2
06:49 50.3 °F /  10.2 °C 49.2 °F /  9.6 °C 29.64in /  1003.6hPa Calm     96% 0.00in /  0mm 0 W/m2
06:54 50.4 °F /  10.2 °C 49.3 °F /  9.6 °C 29.63in /  1003.3hPa Calm     96% 0.00in /  0mm 0 W/m2
06:59 50.2 °F /  10.1 °C 49.1 °F /  9.5 °C 29.62in /  1002.9hPa Calm     96% 0.00in /  0mm 0 W/m2
07:04 50.3 °F /  10.2 °C 49.3 °F /  9.6 °C 29.62in /  1002.9hPa Calm     96% 0.00in /  0mm 0 W/m2
07:09 50.9 °F /  10.5 °C 49.8 °F /  9.9 °C 29.62in /  1002.9hPa Calm     96% 0.00in /  0mm 0 W/m2
07:14 50.4 °F /  10.2 °C 49.3 °F /  9.6 °C 29.62in /  1002.9hPa Calm     96% 0.00in /  0mm 0 W/m2
07:19 50.2 °F /  10.1 °C 49.1 °F /  9.5 °C 29.62in /  1002.9hPa Calm     96% 0.00in /  0mm 0 W/m2
07:24 50 °F /  10 °C 48.9 °F /  9.4 °C 29.62in /  1002.9hPa Calm     96% 0.00in /  0mm 0 W/m2
07:29 49.6 °F /  9.8 °C 48.6 °F /  9.2 °C 29.62in /  1002.9hPa Calm     96% 0.00in /  0mm 0 W/m2
07:34 49.6 °F /  9.8 °C 48.6 °F /  9.2 °C 29.62in /  1002.9hPa Calm   1mph /  1.6km/h 96% 0.00in /  0mm 0 W/m2
07:39 49.7 °F /  9.8 °C 48.7 °F /  9.3 °C 29.62in /  1002.9hPa ESE 0.1mph /  0.2km/h 2mph /  3.2km/h 96% 0.00in /  0mm 0 W/m2
07:44 49.8 °F /  9.9 °C 48.7 °F /  9.3 °C 29.63in /  1003.3hPa ESE 0.1mph /  0.2km/h 2mph /  3.2km/h 96% 0.00in /  0mm 0 W/m2
07:49 50 °F /  10 °C 48.9 °F /  9.4 °C 29.63in /  1003.3hPa Calm   1mph /  1.6km/h 96% 0.00in /  0mm 0 W/m2
07:54 50.2 °F /  10.1 °C 49.1 °F /  9.5 °C 29.63in /  1003.3hPa Calm     96% 0.00in /  0mm 0 W/m2
07:59 50.2 °F /  10.1 °C 49.1 °F /  9.5 °C 29.63in /  1003.3hPa Calm     96% 0.00in /  0mm 5 W/m2
08:04 50.2 °F /  10.1 °C 49.1 °F /  9.5 °C 29.63in /  1003.3hPa Calm     96% 0.00in /  0mm 9 W/m2
08:09 50.2 °F /  10.1 °C 49.1 °F /  9.5 °C 29.63in /  1003.3hPa Calm     96% 0.00in /  0mm 11 W/m2
08:14 49.9 °F /  9.9 °C 48.8 °F /  9.3 °C 29.63in /  1003.3hPa Calm     96% 0.00in /  0mm 12 W/m2
08:19 49.8 °F /  9.9 °C 48.7 °F /  9.3 °C 29.63in /  1003.3hPa Calm     96% 0.00in /  0mm 12 W/m2
08:24 49.8 °F /  9.9 °C 48.7 °F /  9.3 °C 29.64in /  1003.6hPa Calm     96% 0.00in /  0mm 14 W/m2
08:29 49.8 °F /  9.9 °C 48.7 °F /  9.3 °C 29.64in /  1003.6hPa Calm   1mph /  1.6km/h 96% 0.00in /  0mm 18 W/m2
08:34 49.8 °F /  9.9 °C 48.7 °F /  9.3 °C 29.64in /  1003.6hPa ESE 0.1mph /  0.2km/h 1mph /  1.6km/h 96% 0.00in /  0mm 25 W/m2
08:39 49.8 °F /  9.9 °C 48.7 °F /  9.3 °C 29.64in /  1003.6hPa ESE 0.1mph /  0.2km/h 1mph /  1.6km/h 96% 0.00in /  0mm 33 W/m2
08:44 49.8 °F /  9.9 °C 48.7 °F /  9.3 °C 29.63in /  1003.3hPa Calm     96% 0.00in /  0mm 35 W/m2
08:49 49.8 °F /  9.9 °C 48.7 °F /  9.3 °C 29.63in /  1003.3hPa Calm     96% 0.00in /  0mm 46 W/m2
08:54 50 °F /  10 °C 48.9 °F /  9.4 °C 29.63in /  1003.3hPa Calm     96% 0.00in /  0mm 53 W/m2
08:59 50.3 °F /  10.2 °C 49.2 °F /  9.6 °C 29.63in /  1003.3hPa Calm     96% 0.00in /  0mm 54 W/m2
09:04 50.4 °F /  10.2 °C 49.3 °F /  9.6 °C 29.63in /  1003.3hPa Calm     96% 0.00in /  0mm 47 W/m2
09:09 50.5 °F /  10.3 °C 49.5 °F /  9.7 °C 29.63in /  1003.3hPa Calm     96% 0.00in /  0mm 28 W/m2
09:14 50.6 °F /  10.3 °C 49.6 °F /  9.8 °C 29.62in /  1002.9hPa Calm     96% 0.00in /  0mm 25 W/m2
09:19 50.7 °F /  10.4 °C 49.6 °F /  9.8 °C 29.63in /  1003.3hPa Calm     96% 0.00in /  0mm 25 W/m2
09:24 50.8 °F /  10.4 °C 49.7 °F /  9.8 °C 29.63in /  1003.3hPa Calm     96% 0.00in /  0mm 25 W/m2
09:29 50.7 °F /  10.4 °C 49.6 °F /  9.8 °C 29.63in /  1003.3hPa Calm     96% 0.00in /  0mm 28 W/m2
09:34 50.7 °F /  10.4 °C 49.6 °F /  9.8 °C 29.62in /  1002.9hPa Calm     96% 0.00in /  0mm 32 W/m2
09:39 51 °F /  10.6 °C 49.9 °F /  9.9 °C 29.62in /  1002.9hPa Calm     96% 0.00in /  0mm 32 W/m2
09:44 51.1 °F /  10.6 °C 50 °F /  10 °C 29.62in /  1002.9hPa Calm     96% 0.00in /  0mm 33 W/m2
09:49 51.1 °F /  10.6 °C 50 °F /  10 °C 29.61in /  1002.6hPa Calm     96% 0.00in /  0mm 37 W/m2
09:54 51.3 °F /  10.7 °C 50.2 °F /  10.1 °C 29.62in /  1002.9hPa Calm     96% 0.00in /  0mm 42 W/m2
09:59 51.4 °F /  10.8 °C 50.4 °F /  10.2 °C 29.62in /  1002.9hPa Calm     96% 0.00in /  0mm 44 W/m2
10:04 51.4 °F /  10.8 °C 50.4 °F /  10.2 °C 29.62in /  1002.9hPa Calm     96% 0.00in /  0mm 56 W/m2
10:09 51.5 °F /  10.8 °C 50.5 °F /  10.3 °C 29.62in /  1002.9hPa Calm     96% 0.00in /  0mm 60 W/m2
10:14 51.5 °F /  10.8 °C 50.4 °F /  10.2 °C 29.62in /  1002.9hPa Calm     96% 0.00in /  0mm 77 W/m2
10:19 51.4 °F /  10.8 °C 50.4 °F /  10.2 °C 29.62in /  1002.9hPa Calm   1mph /  1.6km/h 96% 0.00in /  0mm 86 W/m2
10:24 51.3 °F /  10.7 °C 50.2 °F /  10.1 °C 29.62in /  1002.9hPa Calm     96% 0.00in /  0mm 81 W/m2
10:29 51.3 °F /  10.7 °C 50.2 °F /  10.1 °C 29.62in /  1002.9hPa Calm     96% 0.00in /  0mm 76 W/m2
10:34 51 °F /  10.6 °C 49.9 °F /  9.9 °C 29.62in /  1002.9hPa Calm     96% 0.00in /  0mm 56 W/m2
10:39 51.1 °F /  10.6 °C 50 °F /  10 °C 29.63in /  1003.3hPa Calm     96% 0.00in /  0mm 44 W/m2
10:44 51.3 °F /  10.7 °C 50.2 °F /  10.1 °C 29.63in /  1003.3hPa Calm   1mph /  1.6km/h 96% 0.00in /  0mm 76 W/m2
10:49 51.3 °F /  10.7 °C 50.3 °F /  10.2 °C 29.63in /  1003.3hPa Calm   1mph /  1.6km/h 96% 0.00in /  0mm 104 W/m2
10:54 51.5 °F /  10.8 °C 50.5 °F /  10.3 °C 29.63in /  1003.3hPa ESE 0.3mph /  0.5km/h 2mph /  3.2km/h 96% 0.00in /  0mm 116 W/m2
10:59 51.6 °F /  10.9 °C 50.5 °F /  10.3 °C 29.63in /  1003.3hPa Calm   1mph /  1.6km/h 96% 0.00in /  0mm 113 W/m2
11:04 51.6 °F /  10.9 °C 50.5 °F /  10.3 °C 29.63in /  1003.3hPa ESE 0.1mph /  0.2km/h 1mph /  1.6km/h 96% 0.00in /  0mm 90 W/m2
11:09 51.7 °F /  10.9 °C 50.6 °F /  10.3 °C 29.63in /  1003.3hPa ESE 0.3mph /  0.5km/h 2mph /  3.2km/h 96% 0.00in /  0mm 95 W/m2
11:14 51.6 °F /  10.9 °C 50.5 °F /  10.3 °C 29.63in /  1003.3hPa ESE 2mph /  3.2km/h 5mph /  8km/h 96% 0.00in /  0mm 93 W/m2
11:19 51.6 °F /  10.9 °C 50.5 °F /  10.3 °C 29.63in /  1003.3hPa ESE 2.4mph /  3.9km/h 5mph /  8km/h 96% 0.00in /  0mm 77 W/m2
11:24 51.4 °F /  10.8 °C 50.4 °F /  10.2 °C 29.63in /  1003.3hPa ESE 1.9mph /  3.1km/h 5mph /  8km/h 96% 0.00in /  0mm 86 W/m2
11:29 51.5 °F /  10.8 °C 50.4 °F /  10.2 °C 29.63in /  1003.3hPa ESE 1.4mph /  2.3km/h 4mph /  6.4km/h 96% 0.00in /  0mm 90 W/m2
11:34 51.6 °F /  10.9 °C 50.5 °F /  10.3 °C 29.63in /  1003.3hPa ESE 1.3mph /  2.1km/h 5mph /  8km/h 96% 0.00in /  0mm 97 W/m2
11:39 51.4 °F /  10.8 °C 50.3 °F /  10.2 °C 29.64in /  1003.6hPa SE 2.5mph /  4km/h 5mph /  8km/h 96% 0.00in /  0mm 109 W/m2
11:44 51.3 °F /  10.7 °C 50.3 °F /  10.2 °C 29.64in /  1003.6hPa SSE 1.1mph /  1.8km/h 4mph /  6.4km/h 96% 0.00in /  0mm 132 W/m2
11:49 51.6 °F /  10.9 °C 50.5 °F /  10.3 °C 29.64in /  1003.6hPa SSE 0.6mph /  1km/h 3mph /  4.8km/h 96% 0.00in /  0mm 169 W/m2
11:54 51.6 °F /  10.9 °C 50.5 °F /  10.3 °C 29.64in /  1003.6hPa SSE 0.9mph /  1.4km/h 4mph /  6.4km/h 96% 0.00in /  0mm 181 W/m2
11:59 51.7 °F /  10.9 °C 50.6 °F /  10.3 °C 29.64in /  1003.6hPa SSE 0.6mph /  1km/h 2mph /  3.2km/h 96% 0.00in /  0mm 153 W/m2
12:04 51.8 °F /  11 °C 50.7 °F /  10.4 °C 29.64in /  1003.6hPa SSE 0.3mph /  0.5km/h 3mph /  4.8km/h 96% 0.00in /  0mm 111 W/m2
12:09 52 °F /  11.1 °C 50.9 °F /  10.5 °C 29.64in /  1003.6hPa SSE 0.2mph /  0.3km/h 2mph /  3.2km/h 96% 0.00in /  0mm 127 W/m2
12:14 52 °F /  11.1 °C 50.9 °F /  10.5 °C 29.64in /  1003.6hPa SSE 0.9mph /  1.4km/h 3mph /  4.8km/h 96% 0.00in /  0mm 137 W/m2
12:19 52.2 °F /  11.2 °C 51.1 °F /  10.6 °C 29.65in /  1003.9hPa SSE 1.4mph /  2.3km/h 3mph /  4.8km/h 96% 0.00in /  0mm 132 W/m2
12:24 52.2 °F /  11.2 °C 51.1 °F /  10.6 °C 29.65in /  1003.9hPa SSE 0.8mph /  1.3km/h 4mph /  6.4km/h 96% 0.00in /  0mm 114 W/m2
12:29 52.3 °F /  11.3 °C 51.3 °F /  10.7 °C 29.65in /  1003.9hPa Calm   2mph /  3.2km/h 96% 0.00in /  0mm 128 W/m2
12:34 52.5 °F /  11.4 °C 51.4 °F /  10.8 °C 29.65in /  1003.9hPa SSE 0.4mph /  0.6km/h 3mph /  4.8km/h 96% 0.00in /  0mm 130 W/m2
12:39 52.8 °F /  11.6 °C 51.7 °F /  10.9 °C 29.65in /  1003.9hPa SSE 0.1mph /  0.2km/h 1mph /  1.6km/h 96% 0.00in /  0mm 153 W/m2
12:44 53.1 °F /  11.7 °C 52 °F /  11.1 °C 29.65in /  1003.9hPa SSE 1.1mph /  1.8km/h 4mph /  6.4km/h 96% 0.00in /  0mm 241 W/m2
12:49 53.3 °F /  11.8 °C 52.3 °F /  11.3 °C 29.65in /  1003.9hPa SSE 1.4mph /  2.3km/h 4mph /  6.4km/h 96% 0.00in /  0mm 243 W/m2
12:54 53.5 °F /  11.9 °C 52.4 °F /  11.3 °C 29.65in /  1003.9hPa SSE 1.6mph /  2.6km/h 4mph /  6.4km/h 96% 0.00in /  0mm 241 W/m2
12:59 53.9 °F /  12.2 °C 52.4 °F /  11.3 °C 29.65in /  1003.9hPa South 3mph /  4.8km/h 6mph /  9.7km/h 95% 0.00in /  0mm 241 W/m2
13:04 54 °F /  12.2 °C 52.5 °F /  11.4 °C 29.65in /  1003.9hPa SSW 2.8mph /  4.5km/h 6mph /  9.7km/h 95% 0.00in /  0mm 234 W/m2
13:09 54.2 °F /  12.3 °C 52.8 °F /  11.6 °C 29.65in /  1003.9hPa SSW 2.3mph /  3.7km/h 5mph /  8km/h 95.1% 0.00in /  0mm 320 W/m2
13:14 54.4 °F /  12.4 °C 53 °F /  11.7 °C 29.65in /  1003.9hPa SSW 2.6mph /  4.2km/h 6mph /  9.7km/h 95% 0.00in /  0mm 320 W/m2
13:19 54.6 °F /  12.6 °C 53.1 °F /  11.7 °C 29.65in /  1003.9hPa SW 2.2mph /  3.5km/h 6mph /  9.7km/h 95% 0.00in /  0mm 158 W/m2
13:24 54.7 °F /  12.6 °C 53.2 °F /  11.8 °C 29.65in /  1003.9hPa SW 1.5mph /  2.4km/h 5mph /  8km/h 95% 0.00in /  0mm 153 W/m2
13:29 54.9 °F /  12.7 °C 53.4 °F /  11.9 °C 29.65in /  1003.9hPa SW 2.7mph /  4.3km/h 6mph /  9.7km/h 95% 0.00in /  0mm 153 W/m2
13:34 55.1 °F /  12.8 °C 53.7 °F /  12.1 °C 29.65in /  1003.9hPa SW 3.6mph /  5.8km/h 8mph /  12.9km/h 95% 0.00in /  0mm 185 W/m2
13:39 55.2 °F /  12.9 °C 53.7 °F /  12.1 °C 29.65in /  1003.9hPa WSW 2.5mph /  4km/h 7mph /  11.3km/h 94.4% 0.00in /  0mm 167 W/m2
13:44 55.4 °F /  13 °C 53.8 °F /  12.1 °C 29.65in /  1003.9hPa WSW 4.4mph /  7.1km/h 9mph /  14.5km/h 94% 0.00in /  0mm 216 W/m2
13:49 55.5 °F /  13.1 °C 53.9 °F /  12.2 °C 29.65in /  1003.9hPa WSW 4.3mph /  6.9km/h 9mph /  14.5km/h 94% 0.00in /  0mm 292 W/m2
13:54 55.7 °F /  13.2 °C 53.9 °F /  12.2 °C 29.65in /  1003.9hPa WSW 3.9mph /  6.3km/h 9mph /  14.5km/h 93.5% 0.00in /  0mm 339 W/m2
13:59 55.8 °F /  13.2 °C 53.7 °F /  12.1 °C 29.65in /  1003.9hPa WSW 5.3mph /  8.5km/h 9mph /  14.5km/h 92.5% 0.00in /  0mm 575 W/m2
14:04 55.9 °F /  13.3 °C 53.5 °F /  11.9 °C 29.65in /  1003.9hPa West 4.5mph /  7.2km/h 9mph /  14.5km/h 91.7% 0.00in /  0mm 253 W/m2
14:09 56.2 °F /  13.4 °C 53.7 °F /  12.1 °C 29.65in /  1003.9hPa West 4.1mph /  6.6km/h 9mph /  14.5km/h 90.9% 0.00in /  0mm 325 W/m2
14:14 56.4 °F /  13.6 °C 53.4 °F /  11.9 °C 29.65in /  1003.9hPa West 4.2mph /  6.8km/h 9mph /  14.5km/h 89.7% 0.00in /  0mm 448 W/m2
14:19 57.1 °F /  13.9 °C 53.8 °F /  12.1 °C 29.65in /  1003.9hPa West 3.7mph /  6km/h 9mph /  14.5km/h 88.8% 0.00in /  0mm 547 W/m2
14:24 57.4 °F /  14.1 °C 53.7 °F /  12.1 °C 29.65in /  1003.9hPa West 4.4mph /  7.1km/h 9mph /  14.5km/h 87.5% 0.00in /  0mm 536 W/m2
14:29 58 °F /  14.4 °C 54 °F /  12.2 °C 29.65in /  1003.9hPa West 4.3mph /  6.9km/h 8mph /  12.9km/h 86.3% 0.00in /  0mm 469 W/m2
14:34 58.2 °F /  14.6 °C 53.5 °F /  11.9 °C 29.66in /  1004.3hPa West 6.1mph /  9.8km/h 9mph /  14.5km/h 84.6% 0.00in /  0mm 487 W/m2
14:39 58 °F /  14.4 °C 52.8 °F /  11.6 °C 29.66in /  1004.3hPa West 8.5mph /  13.7km/h 13mph /  20.9km/h 83.1% 0.00in /  0mm 490 W/m2
14:44 58.1 °F /  14.5 °C 52.7 °F /  11.5 °C 29.66in /  1004.3hPa West 6.6mph /  10.6km/h 13mph /  20.9km/h 82% 0.00in /  0mm 403 W/m2
14:49 57.8 °F /  14.3 °C 52.4 °F /  11.3 °C 29.66in /  1004.3hPa West 6.5mph /  10.5km/h 13mph /  20.9km/h 82% 0.00in /  0mm 388 W/m2
14:54 57.7 °F /  14.3 °C 52 °F /  11.1 °C 29.66in /  1004.3hPa WNW 5.2mph /  8.4km/h 13mph /  20.9km/h 81% 0.00in /  0mm 230 W/m2
14:59 57.7 °F /  14.3 °C 52 °F /  11.1 °C 29.66in /  1004.3hPa West 5.3mph /  8.5km/h 11mph /  17.7km/h 81.3% 0.00in /  0mm 141 W/m2
15:04 57.6 °F /  14.2 °C 52 °F /  11.1 °C 29.66in /  1004.3hPa West 2.6mph /  4.2km/h 8mph /  12.9km/h 81.5% 0.00in /  0mm 151 W/m2
15:09 57.6 °F /  14.2 °C 52.1 °F /  11.2 °C 29.66in /  1004.3hPa WNW 4.3mph /  6.9km/h 9mph /  14.5km/h 81.9% 0.00in /  0mm 149 W/m2
15:14 57.6 °F /  14.2 °C 51.8 °F /  11 °C 29.67in /  1004.6hPa West 4.7mph /  7.6km/h 11mph /  17.7km/h 81% 0.00in /  0mm 153 W/m2
15:19 57.6 °F /  14.2 °C 51.8 °F /  11 °C 29.67in /  1004.6hPa West 7.1mph /  11.4km/h 12mph /  19.3km/h 81% 0.00in /  0mm 183 W/m2
15:24 57.5 °F /  14.2 °C 51.7 °F /  10.9 °C 29.67in /  1004.6hPa West 4.5mph /  7.2km/h 12mph /  19.3km/h 81% 0.00in /  0mm 239 W/m2
15:29 57.7 °F /  14.3 °C 51.9 °F /  11.1 °C 29.67in /  1004.6hPa West 5.1mph /  8.2km/h 9mph /  14.5km/h 81% 0.00in /  0mm 350 W/m2
15:34 58.2 °F /  14.6 °C 52.2 °F /  11.2 °C 29.67in /  1004.6hPa WNW 3.1mph /  5km/h 9mph /  14.5km/h 80.3% 0.00in /  0mm 302 W/m2
15:39 58.6 °F /  14.8 °C 52 °F /  11.1 °C 29.67in /  1004.6hPa West 4.3mph /  6.9km/h 9mph /  14.5km/h 78.7% 0.00in /  0mm 279 W/m2
15:44 58.8 °F /  14.9 °C 51.7 °F /  10.9 °C 29.67in /  1004.6hPa West 3.5mph /  5.6km/h 9mph /  14.5km/h 77.2% 0.00in /  0mm 318 W/m2
15:49 59 °F /  15 °C 51.5 °F /  10.8 °C 29.68in /  1005hPa West 3.7mph /  6km/h 10mph /  16.1km/h 76.2% 0.00in /  0mm 243 W/m2
15:54 58.8 °F /  14.9 °C 51.1 °F /  10.6 °C 29.68in /  1005hPa West 6.8mph /  10.9km/h 14mph /  22.5km/h 75.6% 0.00in /  0mm 320 W/m2
15:59 58.6 °F /  14.8 °C 50.6 °F /  10.3 °C 29.68in /  1005hPa West 8.4mph /  13.5km/h 14mph /  22.5km/h 75% 0.00in /  0mm 287 W/m2
16:04 58.6 °F /  14.8 °C 50.6 °F /  10.3 °C 29.68in /  1005hPa WNW 7mph /  11.3km/h 14mph /  22.5km/h 75% 0.00in /  0mm 246 W/m2
16:09 58.5 °F /  14.7 °C 50.8 °F /  10.4 °C 29.68in /  1005hPa West 5mph /  8km/h 11mph /  17.7km/h 75.5% 0.00in /  0mm 246 W/m2
16:14 58.5 °F /  14.7 °C 50.8 °F /  10.4 °C 29.68in /  1005hPa West 8.4mph /  13.5km/h 13mph /  20.9km/h 75.7% 0.00in /  0mm 223 W/m2
16:19 58.2 °F /  14.6 °C 50.6 °F /  10.3 °C 29.69in /  1005.3hPa West 5.9mph /  9.5km/h 13mph /  20.9km/h 76% 0.00in /  0mm 190 W/m2
16:24 57.9 °F /  14.4 °C 50.4 °F /  10.2 °C 29.69in /  1005.3hPa West 6mph /  9.7km/h 12mph /  19.3km/h 76% 0.00in /  0mm 172 W/m2
16:29 58.2 °F /  14.6 °C 50.6 °F /  10.3 °C 29.69in /  1005.3hPa West 5.7mph /  9.2km/h 10mph /  16.1km/h 76% 0.00in /  0mm 160 W/m2
16:34 57.9 °F /  14.4 °C 50.2 °F /  10.1 °C 29.69in /  1005.3hPa West 8.1mph /  13km/h 14mph /  22.5km/h 75.5% 0.00in /  0mm 144 W/m2
16:39 57.6 °F /  14.2 °C 49.6 °F /  9.8 °C 29.69in /  1005.3hPa West 7.1mph /  11.4km/h 18mph /  29km/h 74.9% 0.00in /  0mm 125 W/m2
16:44 57.3 °F /  14.1 °C 49.4 °F /  9.7 °C 29.69in /  1005.3hPa West 7.2mph /  11.6km/h 18mph /  29km/h 75% 0.00in /  0mm 125 W/m2
16:49 56.9 °F /  13.8 °C 49 °F /  9.4 °C 29.70in /  1005.6hPa West 6.5mph /  10.5km/h 13mph /  20.9km/h 75% 0.00in /  0mm 90 W/m2
16:54 56.7 °F /  13.7 °C 49.2 °F /  9.6 °C 29.70in /  1005.6hPa West 6.9mph /  11.1km/h 16mph /  25.7km/h 76.1% 0.00in /  0mm 90 W/m2
16:59 56.3 °F /  13.5 °C 49.2 °F /  9.6 °C 29.70in /  1005.6hPa West 6.6mph /  10.6km/h 13mph /  20.9km/h 77.3% 0.00in /  0mm 63 W/m2
17:04 56.1 °F /  13.4 °C 49.4 °F /  9.7 °C 29.70in /  1005.6hPa West 6.6mph /  10.6km/h 15mph /  24.1km/h 78.4% 0.00in /  0mm 60 W/m2
17:09 55.9 °F /  13.3 °C 49.5 °F /  9.7 °C 29.70in /  1005.6hPa West 5.3mph /  8.5km/h 11mph /  17.7km/h 79% 0.00in /  0mm 56 W/m2
17:14 55.9 °F /  13.3 °C 49.7 °F /  9.8 °C 29.71in /  1006hPa WNW 5.5mph /  8.9km/h 9mph /  14.5km/h 79.8% 0.00in /  0mm 54 W/m2
17:19 55.8 °F /  13.2 °C 49.8 °F /  9.9 °C 29.71in /  1006hPa West 4.7mph /  7.6km/h 9mph /  14.5km/h 80.5% 0.00in /  0mm 54 W/m2
17:24 55.8 °F /  13.2 °C 50 °F /  10 °C 29.71in /  1006hPa West 6.8mph /  10.9km/h 12mph /  19.3km/h 80.8% 0.00in /  0mm 56 W/m2
17:29 55.8 °F /  13.2 °C 49.6 °F /  9.8 °C 29.71in /  1006hPa West 7.1mph /  11.4km/h 13mph /  20.9km/h 80% 0.00in /  0mm 42 W/m2
17:34 55.6 °F /  13.1 °C 49.5 °F /  9.7 °C 29.71in /  1006hPa West 5.1mph /  8.2km/h 13mph /  20.9km/h 80% 0.00in /  0mm 21 W/m2
17:39 55.2 °F /  12.9 °C 49.1 °F /  9.5 °C 29.72in /  1006.3hPa West 3.2mph /  5.1km/h 8mph /  12.9km/h 80% 0.00in /  0mm 16 W/m2
17:44 55 °F /  12.8 °C 48.8 °F /  9.3 °C 29.72in /  1006.3hPa West 4.1mph /  6.6km/h 10mph /  16.1km/h 80% 0.00in /  0mm 12 W/m2
17:49 54.7 °F /  12.6 °C 48.6 °F /  9.2 °C 29.72in /  1006.3hPa West 3.6mph /  5.8km/h 10mph /  16.1km/h 80% 0.00in /  0mm 11 W/m2
17:54 54.4 °F /  12.4 °C 48.2 °F /  9 °C 29.72in /  1006.3hPa West 4.4mph /  7.1km/h 8mph /  12.9km/h 79.5% 0.00in /  0mm 7 W/m2
17:59 54.2 °F /  12.3 °C 48 °F /  8.9 °C 29.73in /  1006.7hPa West 3.9mph /  6.3km/h 8mph /  12.9km/h 79.6% 0.00in /  0mm 5 W/m2
18:04 54 °F /  12.2 °C 48 °F /  8.9 °C 29.73in /  1006.7hPa West 3.9mph /  6.3km/h 8mph /  12.9km/h 80% 0.00in /  0mm 0 W/m2
18:09 53.8 °F /  12.1 °C 47.8 °F /  8.8 °C 29.73in /  1006.7hPa West 4.8mph /  7.7km/h 8mph /  12.9km/h 80% 0.00in /  0mm 0 W/m2
18:14 53.8 °F /  12.1 °C 47.8 °F /  8.8 °C 29.73in /  1006.7hPa West 2.7mph /  4.3km/h 7mph /  11.3km/h 80% 0.00in /  0mm 0 W/m2
18:19 53.5 °F /  11.9 °C 47.7 °F /  8.7 °C 29.74in /  1007hPa West 1.6mph /  2.6km/h 6mph /  9.7km/h 80.3% 0.00in /  0mm 0 W/m2
18:24 53.3 °F /  11.8 °C 47.6 °F /  8.7 °C 29.74in /  1007hPa West 1mph /  1.6km/h 6mph /  9.7km/h 81% 0.00in /  0mm 0 W/m2
18:29 53.2 °F /  11.8 °C 47.6 °F /  8.7 °C 29.74in /  1007hPa West 0.9mph /  1.4km/h 3mph /  4.8km/h 81.3% 0.00in /  0mm 0 W/m2
18:34 53 °F /  11.7 °C 47.6 °F /  8.7 °C 29.74in /  1007hPa West 1mph /  1.6km/h 3mph /  4.8km/h 82% 0.00in /  0mm 0 W/m2
18:39 52.9 °F /  11.6 °C 47.7 °F /  8.7 °C 29.75in /  1007.3hPa West 0.2mph /  0.3km/h 3mph /  4.8km/h 82.7% 0.00in /  0mm 0 W/m2
18:44 52.9 °F /  11.6 °C 47.8 °F /  8.8 °C 29.75in /  1007.3hPa West 0.1mph /  0.2km/h 1mph /  1.6km/h 83% 0.00in /  0mm 0 W/m2
18:49 52.6 °F /  11.4 °C 47.9 °F /  8.8 °C 29.75in /  1007.3hPa West 0.2mph /  0.3km/h 1mph /  1.6km/h 83.9% 0.00in /  0mm 0 W/m2
18:54 52.5 °F /  11.4 °C 47.8 °F /  8.8 °C 29.75in /  1007.3hPa Calm   1mph /  1.6km/h 84% 0.00in /  0mm 0 W/m2
18:59 52.4 °F /  11.3 °C 48.1 °F /  8.9 °C 29.75in /  1007.3hPa Calm   1mph /  1.6km/h 85% 0.00in /  0mm 0 W/m2
19:04 52.3 °F /  11.3 °C 48 °F /  8.9 °C 29.75in /  1007.3hPa West 1.2mph /  1.9km/h 6mph /  9.7km/h 85% 0.00in /  0mm 0 W/m2
19:09 52.3 °F /  11.3 °C 48.2 °F /  9 °C 29.75in /  1007.3hPa West 1.1mph /  1.8km/h 6mph /  9.7km/h 85.8% 0.00in /  0mm 0 W/m2
19:14 52.3 °F /  11.3 °C 48 °F /  8.9 °C 29.75in /  1007.3hPa West 0.5mph /  0.8km/h 3mph /  4.8km/h 85.6% 0.00in /  0mm 0 W/m2
19:19 52.2 °F /  11.2 °C 48 °F /  8.9 °C 29.75in /  1007.3hPa West 0.5mph /  0.8km/h 3mph /  4.8km/h 86% 0.00in /  0mm 0 W/m2
19:24 52 °F /  11.1 °C 47.8 °F /  8.8 °C 29.76in /  1007.7hPa West 1.7mph /  2.7km/h 5mph /  8km/h 86% 0.00in /  0mm 0 W/m2
19:29 52 °F /  11.1 °C 47.8 °F /  8.8 °C 29.76in /  1007.7hPa West 1.4mph /  2.3km/h 4mph /  6.4km/h 86% 0.00in /  0mm 0 W/m2
19:34 52 °F /  11.1 °C 47.8 °F /  8.8 °C 29.76in /  1007.7hPa West 0.9mph /  1.4km/h 5mph /  8km/h 86% 0.00in /  0mm 0 W/m2
19:39 52 °F /  11.1 °C 47.8 °F /  8.8 °C 29.76in /  1007.7hPa West 2.5mph /  4km/h 5mph /  8km/h 86% 0.00in /  0mm 0 W/m2
19:44 52 °F /  11.1 °C 47.8 °F /  8.8 °C 29.77in /  1008hPa West 1.4mph /  2.3km/h 4mph /  6.4km/h 86% 0.00in /  0mm 0 W/m2
19:49 52 °F /  11.1 °C 47.8 °F /  8.8 °C 29.76in /  1007.7hPa West 1.5mph /  2.4km/h 4mph /  6.4km/h 86% 0.00in /  0mm 0 W/m2
19:54 51.9 °F /  11.1 °C 47.7 °F /  8.7 °C 29.77in /  1008hPa West 1.1mph /  1.8km/h 4mph /  6.4km/h 86% 0.00in /  0mm 0 W/m2
19:59 51.7 °F /  10.9 °C 47.6 °F /  8.7 °C 29.77in /  1008hPa West 0.3mph /  0.5km/h 3mph /  4.8km/h 86% 0.00in /  0mm 0 W/m2
20:04 51.6 °F /  10.9 °C 47.5 °F /  8.6 °C 29.77in /  1008hPa West 0.9mph /  1.4km/h 6mph /  9.7km/h 86% 0.00in /  0mm 0 W/m2
20:09 51.6 °F /  10.9 °C 47.5 °F /  8.6 °C 29.77in /  1008hPa West 0.3mph /  0.5km/h 3mph /  4.8km/h 86% 0.00in /  0mm 0 W/m2
20:14 51.4 °F /  10.8 °C 47.3 °F /  8.5 °C 29.77in /  1008hPa West 0.3mph /  0.5km/h 2mph /  3.2km/h 85.7% 0.00in /  0mm 0 W/m2
20:19 51.1 °F /  10.6 °C 47.1 °F /  8.4 °C 29.77in /  1008hPa West 0.7mph /  1.1km/h 3mph /  4.8km/h 86% 0.00in /  0mm 0 W/m2
20:24 50.8 °F /  10.4 °C 46.9 °F /  8.3 °C 29.78in /  1008.4hPa West 1.3mph /  2.1km/h 4mph /  6.4km/h 86% 0.00in /  0mm 0 W/m2
20:29 50.7 °F /  10.4 °C 46.8 °F /  8.2 °C 29.78in /  1008.4hPa West 1.3mph /  2.1km/h 6mph /  9.7km/h 86% 0.00in /  0mm 0 W/m2
20:34 50.7 °F /  10.4 °C 46.8 °F /  8.2 °C 29.78in /  1008.4hPa West 1.5mph /  2.4km/h 6mph /  9.7km/h 86.4% 0.00in /  0mm 0 W/m2
20:39 50.5 °F /  10.3 °C 46.8 °F /  8.2 °C 29.79in /  1008.7hPa West 0.7mph /  1.1km/h 3mph /  4.8km/h 87% 0.00in /  0mm 0 W/m2
20:44 50.5 °F /  10.3 °C 46.8 °F /  8.2 °C 29.79in /  1008.7hPa West 0.3mph /  0.5km/h 2mph /  3.2km/h 87% 0.00in /  0mm 0 W/m2
20:49 50.5 °F /  10.3 °C 46.8 °F /  8.2 °C 29.79in /  1008.7hPa West 0.5mph /  0.8km/h 3mph /  4.8km/h 87% 0.00in /  0mm 0 W/m2
20:54 50.6 °F /  10.3 °C 46.8 °F /  8.2 °C 29.79in /  1008.7hPa West 2.4mph /  3.9km/h 5mph /  8km/h 87% 0.00in /  0mm 0 W/m2
20:59 50.9 °F /  10.5 °C 47.1 °F /  8.4 °C 29.79in /  1008.7hPa West 2.1mph /  3.4km/h 6mph /  9.7km/h 87% 0.00in /  0mm 0 W/m2
21:04 51.1 °F /  10.6 °C 47.3 °F /  8.5 °C 29.79in /  1008.7hPa West 1.5mph /  2.4km/h 6mph /  9.7km/h 86.6% 0.00in /  0mm 0 W/m2
21:09 51.3 °F /  10.7 °C 47.3 °F /  8.5 °C 29.79in /  1008.7hPa WSW 3.4mph /  5.5km/h 8mph /  12.9km/h 86.1% 0.00in /  0mm 0 W/m2
21:14 51.4 °F /  10.8 °C 47.5 °F /  8.6 °C 29.79in /  1008.7hPa SW 3.2mph /  5.1km/h 7mph /  11.3km/h 86% 0.00in /  0mm 0 W/m2
21:19 51.4 °F /  10.8 °C 47.5 °F /  8.6 °C 29.80in /  1009hPa SW 4.7mph /  7.6km/h 9mph /  14.5km/h 86% 0.00in /  0mm 0 W/m2
21:24 51.6 °F /  10.9 °C 47.5 °F /  8.6 °C 29.80in /  1009hPa WSW 4.5mph /  7.2km/h 9mph /  14.5km/h 86% 0.00in /  0mm 0 W/m2
21:29 51.6 °F /  10.9 °C 47.5 °F /  8.6 °C 29.80in /  1009hPa SW 3mph /  4.8km/h 8mph /  12.9km/h 86% 0.00in /  0mm 0 W/m2
21:34 51.6 °F /  10.9 °C 47.5 °F /  8.6 °C 29.80in /  1009hPa SW 2.6mph /  4.2km/h 5mph /  8km/h 86% 0.00in /  0mm 0 W/m2
21:39 51.7 °F /  10.9 °C 47.6 °F /  8.7 °C 29.80in /  1009hPa SW 2.8mph /  4.5km/h 6mph /  9.7km/h 86% 0.00in /  0mm 0 W/m2
21:44 51.8 °F /  11 °C 47.7 °F /  8.7 °C 29.80in /  1009hPa SW 2.4mph /  3.9km/h 5mph /  8km/h 86% 0.00in /  0mm 0 W/m2
21:49 51.8 °F /  11 °C 47.7 °F /  8.7 °C 29.80in /  1009hPa SW 2.1mph /  3.4km/h 5mph /  8km/h 86% 0.00in /  0mm 0 W/m2
21:54 51.8 °F /  11 °C 47.7 °F /  8.7 °C 29.81in /  1009.4hPa SW 1.2mph /  1.9km/h 5mph /  8km/h 86% 0.00in /  0mm 0 W/m2
21:59 51.7 °F /  10.9 °C 47.6 °F /  8.7 °C 29.81in /  1009.4hPa SW 1mph /  1.6km/h 5mph /  8km/h 86% 0.00in /  0mm 0 W/m2
22:04 51.6 °F /  10.9 °C 47.5 °F /  8.6 °C 29.81in /  1009.4hPa SW 0.4mph /  0.6km/h 5mph /  8km/h 86% 0.00in /  0mm 0 W/m2
22:09 51.6 °F /  10.9 °C 47.5 °F /  8.6 °C 29.81in /  1009.4hPa SW 1.1mph /  1.8km/h 4mph /  6.4km/h 86% 0.00in /  0mm 0 W/m2
22:14 51.4 °F /  10.8 °C 47.5 °F /  8.6 °C 29.82in /  1009.7hPa SW 1.4mph /  2.3km/h 5mph /  8km/h 86% 0.00in /  0mm 0 W/m2
22:19 51.4 °F /  10.8 °C 47.5 °F /  8.6 °C 29.82in /  1009.7hPa SW 1.8mph /  2.9km/h 6mph /  9.7km/h 86% 0.00in /  0mm 0 W/m2
22:24 51.5 °F /  10.8 °C 47.5 °F /  8.6 °C 29.82in /  1009.7hPa SW 2.7mph /  4.3km/h 6mph /  9.7km/h 86% 0.00in /  0mm 0 W/m2
22:29 51.6 °F /  10.9 °C 47.5 °F /  8.6 °C 29.82in /  1009.7hPa SW 1.7mph /  2.7km/h 6mph /  9.7km/h 86% 0.00in /  0mm 0 W/m2
22:34 51.6 °F /  10.9 °C 47.8 °F /  8.8 °C 29.83in /  1010hPa SW 1mph /  1.6km/h 5mph /  8km/h 87% 0.00in /  0mm 0 W/m2
22:39 51.4 °F /  10.8 °C 47.7 °F /  8.7 °C 29.83in /  1010hPa SW 1mph /  1.6km/h 4mph /  6.4km/h 87% 0.00in /  0mm 0 W/m2
22:44 51.4 °F /  10.8 °C 47.7 °F /  8.7 °C 29.83in /  1010hPa SW 0.4mph /  0.6km/h 3mph /  4.8km/h 87% 0.00in /  0mm 0 W/m2
22:49 51.4 °F /  10.8 °C 47.7 °F /  8.7 °C 29.83in /  1010hPa Calm     87% 0.00in /  0mm 0 W/m2
22:54 51.4 °F /  10.8 °C 47.7 °F /  8.7 °C 29.83in /  1010hPa SW 0.8mph /  1.3km/h 4mph /  6.4km/h 87% 0.00in /  0mm 0 W/m2
22:59 51.4 °F /  10.8 °C 47.7 °F /  8.7 °C 29.83in /  1010hPa SW 1.4mph /  2.3km/h 7mph /  11.3km/h 87% 0.00in /  0mm 0 W/m2
23:04 51.4 °F /  10.8 °C 47.8 °F /  8.8 °C 29.83in /  1010hPa SW 2mph /  3.2km/h 7mph /  11.3km/h 87.4% 0.00in /  0mm 0 W/m2
23:09 51.4 °F /  10.8 °C 47.9 °F /  8.8 °C 29.83in /  1010hPa SW 1.5mph /  2.4km/h 6mph /  9.7km/h 87.8% 0.00in /  0mm 0 W/m2
23:14 51.4 °F /  10.8 °C 47.8 °F /  8.8 °C 29.83in /  1010hPa SW 0.7mph /  1.1km/h 6mph /  9.7km/h 87.6% 0.00in /  0mm 0 W/m2
23:19 51.3 °F /  10.7 °C 47.5 °F /  8.6 °C 29.83in /  1010hPa SW 0.4mph /  0.6km/h 4mph /  6.4km/h 87% 0.00in /  0mm 0 W/m2
23:24 51.3 °F /  10.7 °C 47.5 °F /  8.6 °C 29.83in /  1010hPa SW 2.7mph /  4.3km/h 7mph /  11.3km/h 87% 0.00in /  0mm 0 W/m2
23:29 51.3 °F /  10.7 °C 47.5 °F /  8.6 °C 29.83in /  1010hPa SW 0.3mph /  0.5km/h 5mph /  8km/h 87% 0.00in /  0mm 0 W/m2
23:34 51.3 °F /  10.7 °C 47.5 °F /  8.6 °C 29.83in /  1010hPa SW 0.1mph /  0.2km/h 2mph /  3.2km/h 87% 0.00in /  0mm 0 W/m2
23:39 51.1 °F /  10.6 °C 47.4 °F /  8.6 °C 29.83in /  1010hPa SW 0.1mph /  0.2km/h 2mph /  3.2km/h 87.3% 0.00in /  0mm 0 W/m2
23:44 51.1 °F /  10.6 °C 47.7 °F /  8.7 °C 29.83in /  1010hPa SW 0.8mph /  1.3km/h 6mph /  9.7km/h 88% 0.00in /  0mm 0 W/m2
23:49 51 °F /  10.6 °C 47.6 °F /  8.7 °C 29.83in /  1010hPa Calm   2mph /  3.2km/h 88% 0.00in /  0mm 0 W/m2
23:54 50.7 °F /  10.4 °C 47.3 °F /  8.5 °C 29.84in /  1010.4hPa Calm     88% 0.00in /  0mm 0 W/m2
23:59 50.7 °F /  10.4 °C 47.3 °F /  8.5 °C 29.84in /  1010.4hPa Calm     88% 0.00in /  0mm 0 W/m2
Bath Spa Weather
Compliments of Weather Underground - 2 mb